Startpagina
METAR-TAF:

METAR-TAF

Vliegvelden :

Aeropuerto Internacional Astor Piazolla

Mar del Plata, Argentinië

breedte: 37-56S, lengte: 057-35W, hoogte: 18 m

Actueel weer

Dit bericht is 53 minuten geleden gemaakt, om 21:00 UTC
Wind 11 kt uit het noordnoordwesten
Temperatuur 11°C
Vochtigheid 71%
Druk 1021 hPa
Zicht 10 km of meer
geen wolken onder 1500 m en geen cumulonimbus

METAR: SAZM 172100Z 34011KT CAVOK 11/06 Q1021

Tijdstip: 18:53 (21:53 UTC)

Verwachting

Dit bericht is 4 uur en het 53 minuten geleden gemaakt, om 17:00 UTC
Verwachting geldig van 17 om 18 UTC tot 18 om 18 UTC
Wind 20 kt uit het noordwesten met uitschieters tot 30 kt
Zicht 10 km of meer
geen wolken onder 1500 m en geen cumulonimbus

TAF: SAZM 171700Z 1718/1818 32020G30KT CAVOK TX15/1818Z TN05/1810Z

Waarnemingen en weersverwachtingen van meer dan 4000 vliegvelden (METAR en TAF).

De beschikbare stations zijn de gele en rode punten op de kaart.

Ga met uw muis naar het station om de naam te zien.

Klik dan om waarnemingen en weersverwachtingen te zien.

kaart wijzigen: klik op de groene knoppen met een zwart kruis om in te zoomen, op de groene knop met een streepje om uit te zoomen of op de groene pijlen voor aangrenzende kaarten.


METAR-TAF: